Time;durP1;ratioP1;P1;durP2;ratioP2;P2;SDS_P1;SDS_P2;PMS_P1;PMS_P2;Temp;Humidity;BMP_temperature;BMP_pressure;BME280_temperature;BME280_humidity;BME280_pressure;Samples;Min_cycle;Max_cycle;Signal;HPM_P1;HPM_P2
2021/10/07 00:01:51;;;;;;;;;;;;;;;13.75;61.48;100883.22;5112350;28;20003;-22
2021/10/07 00:04:16;;;;;;;;;;;;;;;13.91;60.63;100885.34;5111914;28;19912;-22
2021/10/07 00:06:42;;;;;;;;;;;;;;;13.90;60.62;100881.03;5112078;28;19922;-22
2021/10/07 00:09:07;;;;;;;;;;;;;;;13.58;61.46;100873.06;5112198;28;20726;-22
2021/10/07 00:11:33;;;;;;;;;;;;;;;13.67;61.66;100881.66;5111834;28;19912;-22
2021/10/07 00:13:58;;;;;;;;;;;;;;;13.64;61.31;100880.22;5111980;28;20053;-22
2021/10/07 00:16:23;;;;;;;;;;;;;;;13.63;61.15;100869.75;5111933;28;20406;-23
2021/10/07 00:18:51;;;;;;;;;;;;;;;13.80;60.55;100865.44;5111510;28;19922;-23
2021/10/07 00:21:18;;;;;;;;;;;;;;;13.83;60.33;100858.81;5111880;28;20017;-22
2021/10/07 00:26:45;;;;;;;;;;;;;;;13.71;61.04;100861.41;5097996;28;20295;-23
2021/10/07 00:31:45;;;;;;;;;;;;;;;13.74;60.96;100852.13;5111511;28;20031;-22
2021/10/07 00:34:28;;;;;;;;;;;;;;;13.72;61.07;100852.31;5111539;28;20005;-22
2021/10/07 00:37:01;;;;;;;;;;;;;;;13.68;61.43;100844.94;5111290;28;19946;-22
2021/10/07 00:39:26;;;;;;;;;;;;;;;13.56;61.70;100848.34;5111512;28;19912;-22
2021/10/07 00:41:52;;;;;;;;;;;;;;;14.02;60.32;100857.00;5111197;28;19915;-22
2021/10/07 00:44:17;;;;;;;;;;;;;;;14.43;58.71;100850.97;5111300;28;19941;-23
2021/10/07 00:46:50;;;;;;;;;;;;;;;14.19;59.28;100843.81;5111077;28;19941;-22
2021/10/07 00:49:15;;;;;;;;;;;;;;;13.97;60.23;100846.91;5093100;28;20398;-22
2021/10/07 00:51:41;;;;;;;;;;;;;;;14.00;60.21;100849.16;5111276;28;19944;-22
2021/10/07 00:54:06;;;;;;;;;;;;;;;13.76;61.02;100844.66;5110879;28;20395;-22
2021/10/07 00:56:31;;;;;;;;;;;;;;;13.69;61.49;100843.91;5093014;28;19918;-22
2021/10/07 00:58:57;;;;;;;;;;;;;;;13.74;61.29;100836.84;5092630;28;19911;-22
2021/10/07 01:01:22;;;;;;;;;;;;;;;13.52;62.23;100827.56;5111052;28;19911;-22
2021/10/07 01:03:47;;;;;;;;;;;;;;;13.57;61.85;100828.56;5110771;28;20052;-22
2021/10/07 01:06:13;;;;;;;;;;;;;;;13.63;61.92;100841.06;5110502;28;19943;-22
2021/10/07 01:08:38;;;;;;;;;;;;;;;13.81;61.14;100842.97;5111038;28;19935;-22
2021/10/07 01:11:03;;;;;;;;;;;;;;;13.71;61.46;100828.41;5110689;28;19912;-22
2021/10/07 01:13:28;;;;;;;;;;;;;;;13.55;62.19;100835.19;5110795;28;19911;-22
2021/10/07 01:15:59;;;;;;;;;;;;;;;13.45;62.54;100830.31;5110721;28;20307;-22
2021/10/07 01:18:25;;;;;;;;;;;;;;;13.34;62.90;100826.50;5110659;28;19918;-22
2021/10/07 01:20:50;;;;;;;;;;;;;;;13.29;63.14;100820.09;5110474;28;20013;-22
2021/10/07 01:23:15;;;;;;;;;;;;;;;13.25;63.21;100809.00;5110412;28;19922;-22
2021/10/07 01:25:40;;;;;;;;;;;;;;;13.29;62.66;100804.03;5110480;28;19994;-22
2021/10/07 01:28:06;;;;;;;;;;;;;;;13.30;62.30;100806.53;5110559;28;19912;-23
2021/10/07 01:30:31;;;;;;;;;;;;;;;13.27;62.38;100813.09;5110470;28;19911;-22
2021/10/07 01:32:56;;;;;;;;;;;;;;;13.53;61.39;100794.38;5091724;28;19915;-22
2021/10/07 01:35:22;;;;;;;;;;;;;;;13.43;61.51;100800.22;5110353;28;19923;-22
2021/10/07 01:37:47;;;;;;;;;;;;;;;13.38;61.71;100798.22;5110360;28;19959;-22
2021/10/07 01:40:12;;;;;;;;;;;;;;;13.40;61.43;100792.63;5110271;28;19912;-22
2021/10/07 01:42:38;;;;;;;;;;;;;;;13.27;61.82;100791.66;5110036;28;19930;-22
2021/10/07 01:45:04;;;;;;;;;;;;;;;13.63;60.38;100795.50;5110167;28;19967;-22
2021/10/07 01:47:29;;;;;;;;;;;;;;;13.92;59.38;100808.44;5110312;28;19926;-23
2021/10/07 01:49:54;;;;;;;;;;;;;;;13.59;60.26;100807.72;5110316;28;20785;-22
2021/10/07 01:52:20;;;;;;;;;;;;;;;13.35;61.60;100812.03;5110151;28;19929;-22
2021/10/07 01:54:45;;;;;;;;;;;;;;;13.19;62.09;100810.69;5109888;28;19922;-22
2021/10/07 01:57:10;;;;;;;;;;;;;;;13.02;62.98;100804.22;5110086;28;19911;-22
2021/10/07 01:59:35;;;;;;;;;;;;;;;12.98;62.96;100803.03;5109978;28;19976;-22
2021/10/07 02:02:01;;;;;;;;;;;;;;;12.89;63.55;100809.66;5109917;28;19959;-22
2021/10/07 02:04:26;;;;;;;;;;;;;;;12.88;62.91;100814.22;5110102;28;19919;-22
2021/10/07 02:06:51;;;;;;;;;;;;;;;12.83;63.43;100806.81;5109945;28;19915;-22
2021/10/07 02:09:17;;;;;;;;;;;;;;;12.77;62.93;100802.34;5110161;28;19923;-22
2021/10/07 02:11:42;;;;;;;;;;;;;;;12.63;63.22;100801.59;5109975;28;19919;-23
2021/10/07 02:14:07;;;;;;;;;;;;;;;12.71;63.28;100803.19;5109785;28;19923;-23
2021/10/07 02:16:33;;;;;;;;;;;;;;;12.83;62.56;100793.44;5109772;28;20030;-23
2021/10/07 02:18:58;;;;;;;;;;;;;;;12.45;63.76;100788.91;5108901;28;20743;-22
2021/10/07 02:21:24;;;;;;;;;;;;;;;12.46;63.92;100790.56;5110067;28;19912;-23
2021/10/07 02:23:49;;;;;;;;;;;;;;;12.53;64.11;100795.88;5091434;28;20375;-22
2021/10/07 02:26:14;;;;;;;;;;;;;;;12.54;63.92;100799.38;5109759;28;20344;-23
2021/10/07 02:28:39;;;;;;;;;;;;;;;12.60;63.98;100795.84;5109310;28;20113;-23
2021/10/07 02:31:05;;;;;;;;;;;;;;;12.75;63.20;100799.06;5109458;28;19911;-22
2021/10/07 02:33:30;;;;;;;;;;;;;;;12.64;63.89;100808.56;5109643;28;20026;-22
2021/10/07 02:35:55;;;;;;;;;;;;;;;12.59;64.21;100799.56;5109615;28;19941;-22
2021/10/07 02:38:21;;;;;;;;;;;;;;;12.50;64.65;100792.81;5109579;28;20411;-22
2021/10/07 02:40:46;;;;;;;;;;;;;;;12.43;64.70;100790.16;5109382;28;20375;-22
2021/10/07 02:43:11;;;;;;;;;;;;;;;12.53;64.17;100795.88;5109564;28;20396;-22
2021/10/07 02:45:37;;;;;;;;;;;;;;;12.54;64.27;100804.72;5109571;28;19911;-22
2021/10/07 02:48:02;;;;;;;;;;;;;;;12.61;63.92;100805.50;5109884;28;19957;-23
2021/10/07 02:50:27;;;;;;;;;;;;;;;12.56;64.43;100808.00;5110066;28;19968;-22
2021/10/07 02:52:53;;;;;;;;;;;;;;;12.41;64.78;100803.75;5109136;28;19915;-23
2021/10/07 02:55:19;;;;;;;;;;;;;;;12.55;64.32;100803.69;5109316;28;19915;-23
2021/10/07 02:57:45;;;;;;;;;;;;;;;12.62;64.04;100794.56;5109475;28;19912;-22
2021/10/07 03:00:11;;;;;;;;;;;;;;;12.67;63.94;100777.91;5109209;28;20315;-22
2021/10/07 03:02:36;;;;;;;;;;;;;;;12.53;64.30;100773.66;5109045;28;19919;-22
2021/10/07 03:05:01;;;;;;;;;;;;;;;12.57;64.49;100773.00;5109363;28;19911;-22
2021/10/07 03:07:27;;;;;;;;;;;;;;;12.55;64.33;100772.41;5109309;28;19918;-22
2021/10/07 03:09:52;;;;;;;;;;;;;;;12.34;65.31;100760.19;5109309;28;19920;-22
2021/10/07 03:12:17;;;;;;;;;;;;;;;12.30;65.88;100764.31;5109357;28;19911;-22
2021/10/07 03:14:43;;;;;;;;;;;;;;;12.48;65.29;100765.44;5109101;28;19919;-22
2021/10/07 03:17:09;;;;;;;;;;;;;;;12.53;65.25;100762.97;5109064;28;20423;-22
2021/10/07 03:19:35;;;;;;;;;;;;;;;12.53;65.04;100758.41;5109225;28;20477;-22
2021/10/07 03:22:00;;;;;;;;;;;;;;;12.61;64.73;100754.69;5109348;28;20430;-22
2021/10/07 03:24:25;;;;;;;;;;;;;;;12.55;64.77;100752.88;5109174;28;20016;-22
2021/10/07 03:26:51;;;;;;;;;;;;;;;12.67;64.62;100756.50;5108905;28;19916;-22
2021/10/07 03:29:16;;;;;;;;;;;;;;;12.59;65.08;100746.03;5109708;28;19937;-22
2021/10/07 03:31:41;;;;;;;;;;;;;;;12.41;65.22;100754.78;5112836;28;19916;-22
2021/10/07 03:34:07;;;;;;;;;;;;;;;12.38;65.76;100761.38;5113114;28;19916;-22
2021/10/07 03:36:32;;;;;;;;;;;;;;;12.42;65.76;100769.78;5112514;28;20379;-22
2021/10/07 03:38:57;;;;;;;;;;;;;;;12.51;65.47;100765.03;5112373;28;19915;-21
2021/10/07 03:41:23;;;;;;;;;;;;;;;12.51;65.46;100765.03;5112784;28;19949;-22
2021/10/07 03:43:48;;;;;;;;;;;;;;;12.34;65.65;100762.84;5112420;28;19915;-22
2021/10/07 03:46:14;;;;;;;;;;;;;;;12.14;67.15;100759.44;5112692;28;20363;-22
2021/10/07 03:48:39;;;;;;;;;;;;;;;12.31;65.68;100765.94;5112279;28;19915;-22
2021/10/07 03:51:05;;;;;;;;;;;;;;;12.33;65.22;100757.72;5112733;28;19955;-21
2021/10/07 03:53:30;;;;;;;;;;;;;;;12.17;66.08;100759.81;5112331;28;19919;-21
2021/10/07 03:55:55;;;;;;;;;;;;;;;12.32;65.22;100756.06;5112537;28;19916;-21
2021/10/07 03:58:21;;;;;;;;;;;;;;;12.50;64.50;100747.31;5112215;28;19926;-22
2021/10/07 04:00:46;;;;;;;;;;;;;;;12.22;65.66;100743.16;5111883;28;19916;-22
2021/10/07 04:03:11;;;;;;;;;;;;;;;12.22;65.65;100748.50;5112233;28;19915;-22
2021/10/07 04:05:37;;;;;;;;;;;;;;;12.13;66.05;100741.75;5093894;28;20375;-22
2021/10/07 04:08:04;;;;;;;;;;;;;;;12.55;64.57;100750.19;5112002;28;20394;-22
2021/10/07 04:10:29;;;;;;;;;;;;;;;12.39;65.01;100743.47;5112163;28;19915;-22
2021/10/07 04:12:55;;;;;;;;;;;;;;;12.62;63.83;100746.41;5111781;28;20367;-22
2021/10/07 04:15:20;;;;;;;;;;;;;;;13.13;62.31;100749.97;5111901;28;20473;-21
2021/10/07 04:17:45;;;;;;;;;;;;;;;12.36;64.55;100747.41;5112048;28;20375;-22
2021/10/07 04:20:11;;;;;;;;;;;;;;;12.37;64.25;100754.38;5112303;28;19916;-22
2021/10/07 04:22:36;;;;;;;;;;;;;;;12.92;62.29;100750.34;5111504;28;19922;-21
2021/10/07 04:25:01;;;;;;;;;;;;;;;12.85;62.26;100747.69;5111877;28;19922;-21
2021/10/07 04:27:27;;;;;;;;;;;;;;;12.46;63.04;100747.75;5111870;28;19945;-22
2021/10/07 04:29:52;;;;;;;;;;;;;;;12.17;64.49;100754.47;5111753;28;20030;-22
2021/10/07 04:32:17;;;;;;;;;;;;;;;12.53;63.03;100757.59;5111577;28;20006;-22
2021/10/07 04:34:43;;;;;;;;;;;;;;;13.02;61.70;100758.72;5111445;28;20405;-21
2021/10/07 04:37:08;;;;;;;;;;;;;;;13.14;61.16;100759.66;5111764;28;20311;-22
2021/10/07 04:39:33;;;;;;;;;;;;;;;12.97;61.55;100753.19;5111587;28;20298;-22
2021/10/07 04:41:59;;;;;;;;;;;;;;;13.10;61.35;100760.28;5110483;28;20405;-22
2021/10/07 04:44:24;;;;;;;;;;;;;;;13.25;60.53;100766.97;5111235;28;19918;-22
2021/10/07 04:46:49;;;;;;;;;;;;;;;13.58;59.58;100763.19;5111312;28;19912;-21
2021/10/07 04:49:15;;;;;;;;;;;;;;;13.46;60.30;100762.25;5111441;28;19919;-22
2021/10/07 04:51:40;;;;;;;;;;;;;;;13.34;60.71;100761.34;5111240;28;19915;-21
2021/10/07 04:54:05;;;;;;;;;;;;;;;13.55;60.23;100766.31;5110997;28;20280;-22
2021/10/07 04:56:31;;;;;;;;;;;;;;;13.67;60.31;100763.72;5111268;28;19915;-22
2021/10/07 04:58:56;;;;;;;;;;;;;;;13.57;60.42;100758.06;5111058;28;20416;-22
2021/10/07 05:01:21;;;;;;;;;;;;;;;13.55;60.73;100766.31;5111273;28;19912;-22
2021/10/07 05:03:47;;;;;;;;;;;;;;;13.55;60.20;100762.81;5111131;28;19919;-22
2021/10/07 05:06:12;;;;;;;;;;;;;;;13.41;60.78;100776.34;5110990;28;19972;-22
2021/10/07 05:08:38;;;;;;;;;;;;;;;13.40;61.69;100766.66;5110547;28;19922;-22
2021/10/07 05:11:05;;;;;;;;;;;;;;;13.60;60.16;100763.78;5110900;28;19911;-21
2021/10/07 05:13:30;;;;;;;;;;;;;;;13.75;60.53;100762.59;5110767;28;19950;-21
2021/10/07 05:15:55;;;;;;;;;;;;;;;13.59;59.85;100762.16;5110843;28;19959;-22
2021/10/07 05:18:21;;;;;;;;;;;;;;;13.60;59.75;100763.78;5110846;28;20298;-22
2021/10/07 05:20:48;;;;;;;;;;;;;;;14.09;58.22;100763.06;5110527;28;19922;-22
2021/10/07 05:23:14;;;;;;;;;;;;;;;13.56;59.94;100754.53;5110476;28;19916;-22
2021/10/07 05:25:39;;;;;;;;;;;;;;;13.09;61.64;100748.75;5092449;28;19918;-21
2021/10/07 05:28:05;;;;;;;;;;;;;;;12.84;63.19;100759.47;5110302;28;20398;-22
2021/10/07 05:30:30;;;;;;;;;;;;;;;12.91;62.59;100754.88;5110573;28;19916;-22
2021/10/07 05:32:56;;;;;;;;;;;;;;;13.26;61.67;100765.94;5110583;28;19916;-22
2021/10/07 05:35:21;;;;;;;;;;;;;;;13.16;61.79;100760.25;5110487;28;19928;-21
2021/10/07 05:37:46;;;;;;;;;;;;;;;13.51;60.98;100765.13;5110511;28;19983;-22
2021/10/07 05:40:12;;;;;;;;;;;;;;;13.59;60.78;100767.50;5092212;28;19920;-22
2021/10/07 05:42:37;;;;;;;;;;;;;;;13.56;60.87;100775.97;5110037;28;19938;-24
2021/10/07 05:45:03;;;;;;;;;;;;;;;13.61;61.30;100776.16;5110074;28;20353;-22
2021/10/07 05:47:28;;;;;;;;;;;;;;;13.62;60.97;100777.78;5110229;28;20387;-22
2021/10/07 05:49:53;;;;;;;;;;;;;;;13.25;61.64;100771.50;5110222;28;19912;-22
2021/10/07 05:52:18;;;;;;;;;;;;;;;13.53;61.53;100779.13;5109905;28;19911;-22
2021/10/07 05:54:44;;;;;;;;;;;;;;;13.71;63.92;100780.16;5109921;28;19958;-21
2021/10/07 05:57:09;;;;;;;;;;;;;;;14.71;60.26;100782.50;5110098;28;19935;-22
2021/10/07 05:59:35;;;;;;;;;;;;;;;14.80;60.17;100778.44;5109914;28;19936;-22
2021/10/07 06:02:00;;;;;;;;;;;;;;;14.81;58.00;100774.72;5110149;28;19923;-22
2021/10/07 06:04:25;;;;;;;;;;;;;;;15.00;59.61;100777.31;5109821;28;19912;-22
2021/10/07 06:06:51;;;;;;;;;;;;;;;15.20;58.62;100772.44;5109746;28;19969;-21
2021/10/07 06:09:16;;;;;;;;;;;;;;;15.18;58.84;100762.97;5110123;28;20012;-22
2021/10/07 06:11:41;;;;;;;;;;;;;;;15.17;57.69;100764.84;5109672;28;19922;-24
2021/10/07 06:14:07;;;;;;;;;;;;;;;15.06;57.51;100771.03;5109823;28;20387;-22
2021/10/07 06:16:33;;;;;;;;;;;;;;;15.08;58.03;100763.56;5109808;28;19915;-22
2021/10/07 06:18:58;;;;;;;;;;;;;;;15.36;57.58;100772.78;5091560;28;19911;-22
2021/10/07 06:21:23;;;;;;;;;;;;;;;15.10;57.15;100765.97;5109773;28;20036;-22
2021/10/07 06:23:49;;;;;;;;;;;;;;;15.25;56.88;100767.16;5109681;28;19963;-22
2021/10/07 06:26:14;;;;;;;;;;;;;;;15.81;55.92;100766.84;5109823;28;20375;-22
2021/10/07 06:28:40;;;;;;;;;;;;;;;15.99;54.11;100763.19;5109322;28;20381;-22
2021/10/07 06:31:05;;;;;;;;;;;;;;;15.74;54.59;100766.16;5109687;28;19922;-21
2021/10/07 06:33:31;;;;;;;;;;;;;;;15.75;54.80;100778.53;5109666;28;19923;-22
2021/10/07 06:35:58;;;;;;;;;;;;;;;15.51;55.13;100791.97;5109347;28;19960;-22
2021/10/07 06:38:24;;;;;;;;;;;;;;;15.42;55.43;100798.72;5109560;28;19912;-22
2021/10/07 06:40:49;;;;;;;;;;;;;;;14.23;59.06;100794.03;5109308;28;19952;-22
2021/10/07 06:43:15;;;;;;;;;;;;;;;14.71;58.70;100784.34;5109451;28;19911;-22
2021/10/07 06:45:40;;;;;;;;;;;;;;;14.89;58.49;100775.41;5110212;28;20510;-22
2021/10/07 06:48:05;;;;;;;;;;;;;;;14.85;57.55;100783.09;5109526;28;20309;-22
2021/10/07 06:50:31;;;;;;;;;;;;;;;14.89;57.65;100791.53;5109458;28;19918;-21
2021/10/07 06:52:56;;;;;;;;;;;;;;;14.64;58.63;100796.00;5109258;28;20379;-22
2021/10/07 06:55:22;;;;;;;;;;;;;;;14.81;57.70;100801.56;5108945;28;20326;-21
2021/10/07 06:57:47;;;;;;;;;;;;;;;15.44;56.66;100800.13;5109449;28;19911;-22
2021/10/07 07:00:12;;;;;;;;;;;;;;;15.40;56.93;100779.34;5109472;28;19920;-22
2021/10/07 07:02:38;;;;;;;;;;;;;;;15.31;55.76;100786.13;5108976;28;20299;-22
2021/10/07 07:05:05;;;;;;;;;;;;;;;15.47;56.00;100774.69;5111084;28;20339;-21
2021/10/07 07:07:31;;;;;;;;;;;;;;;15.66;56.03;100775.38;5113381;28;19915;-22
2021/10/07 07:09:56;;;;;;;;;;;;;;;15.26;55.87;100774.19;5113227;28;19968;-22
2021/10/07 07:12:21;;;;;;;;;;;;;;;15.72;55.36;100774.44;5113065;28;19915;-22
2021/10/07 07:14:46;;;;;;;;;;;;;;;15.73;55.29;100767.19;5112907;28;20073;-22
2021/10/07 07:17:12;;;;;;;;;;;;;;;15.51;56.04;100762.41;5113126;28;19915;-22
2021/10/07 07:19:38;;;;;;;;;;;;;;;15.55;54.96;100758.19;5113100;28;20723;-22
2021/10/07 07:22:03;;;;;;;;;;;;;;;15.37;55.30;100750.25;5112994;28;19912;-22
2021/10/07 07:24:29;;;;;;;;;;;;;;;15.48;55.52;100752.09;5113056;28;19912;-22
2021/10/07 07:26:54;;;;;;;;;;;;;;;15.63;54.93;100765.91;5112898;28;19969;-21
2021/10/07 07:29:19;;;;;;;;;;;;;;;15.56;55.15;100773.25;5113023;28;19938;-22
2021/10/07 07:31:44;;;;;;;;;;;;;;;15.80;54.52;100766.03;5112855;28;19920;-22
2021/10/07 07:34:10;;;;;;;;;;;;;;;15.76;55.13;100758.66;5112653;28;19970;-22
2021/10/07 07:36:35;;;;;;;;;;;;;;;15.85;54.28;100768.00;5112252;28;19947;-22
2021/10/07 07:39:00;;;;;;;;;;;;;;;15.74;54.02;100771.53;5112747;28;19962;-22
2021/10/07 07:41:26;;;;;;;;;;;;;;;15.97;54.06;100771.47;5112554;28;19912;-22
2021/10/07 07:43:51;;;;;;;;;;;;;;;15.64;55.05;100772.09;5112502;28;19966;-22
2021/10/07 07:46:18;;;;;;;;;;;;;;;15.85;54.10;100771.53;5112558;28;19961;-22
2021/10/07 07:48:47;;;;;;;;;;;;;;;15.76;54.85;100774.81;5112160;28;20351;-22
2021/10/07 07:51:12;;;;;;;;;;;;;;;15.97;53.31;100776.03;5112491;28;19915;-22
2021/10/07 07:53:37;;;;;;;;;;;;;;;15.88;53.31;100788.25;5112836;28;20325;-22
2021/10/07 07:56:03;;;;;;;;;;;;;;;15.64;53.76;100785.53;5112284;28;19922;-22
2021/10/07 07:58:28;;;;;;;;;;;;;;;15.65;53.79;100781.78;5112883;28;20750;-22
2021/10/07 08:00:53;;;;;;;;;;;;;;;15.46;54.12;100781.09;5112028;28;19912;-22
2021/10/07 08:03:19;;;;;;;;;;;;;;;15.09;55.09;100778.59;5112108;28;20010;-21
2021/10/07 08:05:44;;;;;;;;;;;;;;;15.06;55.18;100779.09;5112097;28;19912;-21
2021/10/07 08:08:09;;;;;;;;;;;;;;;14.99;55.25;100779.16;5112210;28;19911;-22
2021/10/07 08:10:35;;;;;;;;;;;;;;;15.06;55.50;100776.41;5111819;28;19915;-21
2021/10/07 08:13:00;;;;;;;;;;;;;;;15.26;55.25;100790.31;5111990;28;19953;-22
2021/10/07 08:15:25;;;;;;;;;;;;;;;15.50;54.90;100787.63;5112194;28;19915;-21
2021/10/07 08:17:51;;;;;;;;;;;;;;;15.30;54.81;100787.16;5112267;28;20375;-22
2021/10/07 08:20:17;;;;;;;;;;;;;;;15.38;55.35;100776.06;5111618;28;19915;-22
2021/10/07 08:22:44;;;;;;;;;;;;;;;15.30;55.30;100782.59;5111865;28;19920;-22
2021/10/07 08:25:09;;;;;;;;;;;;;;;15.47;54.77;100788.13;5111657;28;19947;-21
2021/10/07 08:27:35;;;;;;;;;;;;;;;15.44;54.85;100799.31;5111744;28;20362;-22
2021/10/07 08:30:00;;;;;;;;;;;;;;;15.07;55.51;100794.94;5112202;28;19911;-22
2021/10/07 08:32:25;;;;;;;;;;;;;;;15.15;55.79;100807.22;5111895;28;19916;-22
2021/10/07 08:34:51;;;;;;;;;;;;;;;15.33;55.46;100797.47;5111210;28;20049;-22
2021/10/07 08:37:16;;;;;;;;;;;;;;;15.21;55.77;100806.31;5111631;28;20387;-22
2021/10/07 08:39:41;;;;;;;;;;;;;;;15.25;55.63;100802.09;5111594;28;19955;-21
2021/10/07 08:42:07;;;;;;;;;;;;;;;15.04;56.32;100800.78;5111681;28;19919;-22
2021/10/07 08:44:32;;;;;;;;;;;;;;;14.97;56.62;100793.88;5111369;28;20390;-21
2021/10/07 08:46:57;;;;;;;;;;;;;;;15.07;56.49;100788.75;5111239;28;19915;-21
2021/10/07 08:49:25;;;;;;;;;;;;;;;15.20;56.01;100785.88;5111374;28;20005;-22
2021/10/07 08:51:50;;;;;;;;;;;;;;;15.40;56.00;100782.03;5111319;28;19915;-22
2021/10/07 08:54:15;;;;;;;;;;;;;;;15.62;55.40;100785.75;5111145;28;19934;-22
2021/10/07 08:56:41;;;;;;;;;;;;;;;15.82;54.31;100785.44;5110754;28;19927;-22
2021/10/07 08:59:06;;;;;;;;;;;;;;;16.15;54.06;100780.47;5111343;28;19911;-22
2021/10/07 09:01:37;;;;;;;;;;;;;;;16.36;54.18;100779.78;5111095;28;19915;-23
2021/10/07 09:04:23;;;;;;;;;;;;;;;15.90;54.33;100776.19;5110915;28;19934;-22
2021/10/07 09:06:59;;;;;;;;;;;;;;;16.10;54.60;100765.03;5110326;28;19923;-21
2021/10/07 09:09:24;;;;;;;;;;;;;;;16.10;54.23;100765.03;5111156;28;19994;-21
2021/10/07 09:11:53;;;;;;;;;;;;;;;16.15;54.11;100767.00;5110865;28;20052;-22
2021/10/07 09:14:21;;;;;;;;;;;;;;;15.94;54.39;100766.59;5110714;28;20382;-22
2021/10/07 09:16:48;;;;;;;;;;;;;;;15.77;54.42;100765.66;5092423;28;20367;-22
2021/10/07 09:19:16;;;;;;;;;;;;;;;15.64;55.19;100759.47;5110703;28;19919;-22
2021/10/07 09:21:41;;;;;;;;;;;;;;;15.86;54.74;100754.31;5110634;28;20458;-22
2021/10/07 09:24:25;;;;;;;;;;;;;;;15.96;54.13;100753.72;5110617;28;19911;-21
2021/10/07 09:26:50;;;;;;;;;;;;;;;16.31;54.09;100760.88;5109850;28;19912;-21
2021/10/07 09:29:15;;;;;;;;;;;;;;;15.97;54.60;100771.47;5110561;28;19912;-23
2021/10/07 09:31:41;;;;;;;;;;;;;;;15.73;55.00;100759.13;5110647;28;19916;-22
2021/10/07 09:34:06;;;;;;;;;;;;;;;15.72;54.97;100757.47;5110712;28;20000;-22
2021/10/07 09:36:32;;;;;;;;;;;;;;;16.02;54.79;100744.69;5110264;28;19972;-21
2021/10/07 09:38:57;;;;;;;;;;;;;;;15.89;54.52;100736.88;5110218;28;19919;-22
2021/10/07 09:41:23;;;;;;;;;;;;;;;15.72;55.08;100731.44;5110388;28;19912;-21
2021/10/07 09:43:51;;;;;;;;;;;;;;;15.97;54.40;100731.13;5110366;28;19916;-21
2021/10/07 09:46:35;;;;;;;;;;;;;;;15.82;54.89;100750.47;5110543;28;19918;-21
2021/10/07 09:49:00;;;;;;;;;;;;;;;16.16;54.30;100749.78;5110552;28;19998;-21
2021/10/07 09:51:27;;;;;;;;;;;;;;;15.94;54.37;100750.44;5110155;28;20015;-22
2021/10/07 09:53:52;;;;;;;;;;;;;;;15.85;54.41;100746.47;5091510;28;20395;-22
2021/10/07 09:56:24;;;;;;;;;;;;;;;16.17;53.84;100744.16;5092147;28;19945;-22
2021/10/07 09:58:50;;;;;;;;;;;;;;;15.96;53.88;100748.34;5109743;28;19912;-21
2021/10/07 10:01:15;;;;;;;;;;;;;;;15.89;54.72;100746.81;5110060;28;20007;-22
2021/10/07 10:03:40;;;;;;;;;;;;;;;15.50;55.55;100736.56;5110035;28;20340;-22
2021/10/07 10:06:05;;;;;;;;;;;;;;;15.43;55.56;100738.56;5110315;28;19915;-23
2021/10/07 10:08:31;;;;;;;;;;;;;;;15.52;55.59;100739.84;5109885;28;19911;-21
2021/10/07 10:10:56;;;;;;;;;;;;;;;15.60;55.48;100738.66;5109714;28;19912;-22
2021/10/07 10:13:22;;;;;;;;;;;;;;;15.66;55.31;100732.34;5091798;28;19919;-21
2021/10/07 10:15:47;;;;;;;;;;;;;;;15.42;56.00;100735.03;5109723;28;20003;-21
2021/10/07 10:18:14;;;;;;;;;;;;;;;15.59;55.53;100731.63;5109940;28;20295;-21
2021/10/07 10:20:40;;;;;;;;;;;;;;;15.60;55.45;100734.09;5109690;28;19911;-21
2021/10/07 10:23:07;;;;;;;;;;;;;;;15.70;55.42;100738.06;5109543;28;19918;-21
2021/10/07 10:25:49;;;;;;;;;;;;;;;15.41;56.31;100737.97;5091539;28;19998;-22
2021/10/07 10:28:15;;;;;;;;;;;;;;;15.46;56.51;100738.09;5109656;28;19915;-22
2021/10/07 10:30:41;;;;;;;;;;;;;;;15.27;56.97;100737.38;5109476;28;19919;-21
2021/10/07 10:33:06;;;;;;;;;;;;;;;15.25;57.41;100723.38;5109526;28;20421;-22
2021/10/07 10:35:33;;;;;;;;;;;;;;;15.19;57.48;100722.44;5109458;28;19998;-21
2021/10/07 10:37:58;;;;;;;;;;;;;;;15.31;57.32;100724.31;5109494;28;19911;-23
2021/10/07 10:40:23;;;;;;;;;;;;;;;15.30;57.39;100725.34;5112181;28;20052;-22
2021/10/07 10:42:49;;;;;;;;;;;;;;;15.25;57.44;100726.88;5113577;28;19968;-22
2021/10/07 10:45:14;;;;;;;;;;;;;;;15.34;57.64;100718.47;5095255;28;20371;-22
2021/10/07 10:47:40;;;;;;;;;;;;;;;15.35;57.53;100720.09;5113783;28;20032;-22
2021/10/07 10:50:07;;;;;;;;;;;;;;;15.49;57.96;100718.81;5113620;28;19912;-21
2021/10/07 10:52:43;;;;;;;;;;;;;;;15.41;58.08;100708.41;5113486;28;19985;-22
2021/10/07 10:55:11;;;;;;;;;;;;;;;15.64;57.60;100711.06;5113389;28;19916;-22
2021/10/07 10:57:41;;;;;;;;;;;;;;;16.09;56.29;100698.00;5113605;28;20332;-21
2021/10/07 11:00:06;;;;;;;;;;;;;;;16.14;55.92;100703.47;5113446;28;19912;-22
2021/10/07 11:02:31;;;;;;;;;;;;;;;16.18;55.87;100707.31;5113452;28;19940;-22
2021/10/07 11:04:56;;;;;;;;;;;;;;;16.09;56.01;100700.69;5113052;28;19922;-22
2021/10/07 11:07:31;;;;;;;;;;;;;;;16.04;56.19;100698.72;5113353;28;19939;-22
2021/10/07 11:09:57;;;;;;;;;;;;;;;15.78;56.80;100700.91;5113376;28;19918;-21
2021/10/07 11:12:23;;;;;;;;;;;;;;;15.71;57.55;100696.66;5113638;28;19919;-22
2021/10/07 11:14:50;;;;;;;;;;;;;;;15.80;57.50;100695.28;5113403;28;19930;-21
2021/10/07 11:17:18;;;;;;;;;;;;;;;15.59;58.00;100697.53;5113104;28;19911;-21
2021/10/07 11:19:43;;;;;;;;;;;;;;;15.42;58.19;100694.72;5113341;28;19922;-21
2021/10/07 11:22:09;;;;;;;;;;;;;;;15.33;58.75;100695.34;5113033;28;19916;-22
2021/10/07 11:24:34;;;;;;;;;;;;;;;15.25;58.93;100694.63;5112708;28;20343;-22
2021/10/07 11:26:59;;;;;;;;;;;;;;;15.35;58.52;100693.22;5113027;28;19912;-22
2021/10/07 11:29:25;;;;;;;;;;;;;;;15.22;59.31;100684.38;5112896;28;19919;-22
2021/10/07 11:31:50;;;;;;;;;;;;;;;15.25;59.19;100691.94;5112829;28;19916;-22
2021/10/07 11:34:15;;;;;;;;;;;;;;;15.40;58.80;100696.00;5112914;28;20030;-22
2021/10/07 11:36:40;;;;;;;;;;;;;;;15.12;59.29;100704.78;5112549;28;19915;-21
2021/10/07 11:39:06;;;;;;;;;;;;;;;15.27;58.71;100708.66;5112525;28;20452;-21
2021/10/07 11:41:35;;;;;;;;;;;;;;;15.21;59.25;100704.19;5112749;28;19916;-22
2021/10/07 11:44:01;;;;;;;;;;;;;;;15.00;59.51;100699.44;5112474;28;19926;-22
2021/10/07 11:46:26;;;;;;;;;;;;;;;15.06;59.45;100701.19;5112489;28;19918;-23
2021/10/07 11:48:55;;;;;;;;;;;;;;;15.14;59.67;100700.84;5112340;28;19916;-21
2021/10/07 11:51:24;;;;;;;;;;;;;;;15.05;59.88;100700.34;5112149;28;20022;-22
2021/10/07 11:53:51;;;;;;;;;;;;;;;15.16;59.48;100701.41;5112328;28;19912;-22
2021/10/07 11:56:17;;;;;;;;;;;;;;;15.07;59.18;100702.81;5112458;28;19947;-22
2021/10/07 11:58:48;;;;;;;;;;;;;;;14.93;59.79;100693.34;5112180;28;19958;-21
2021/10/07 12:01:14;;;;;;;;;;;;;;;14.91;59.74;100682.00;5112305;28;20375;-22
2021/10/07 12:03:39;;;;;;;;;;;;;;;15.03;59.76;100685.50;5112162;28;20010;-23
2021/10/07 12:06:05;;;;;;;;;;;;;;;14.89;59.90;100681.41;5112199;28;19937;-21
2021/10/07 12:08:31;;;;;;;;;;;;;;;14.99;59.72;100678.97;5112263;28;19955;-22
2021/10/07 12:10:58;;;;;;;;;;;;;;;15.08;59.49;100672.22;5111956;28;19912;-22
2021/10/07 12:13:30;;;;;;;;;;;;;;;15.45;58.40;100677.34;5112010;28;19993;-22
2021/10/07 12:15:55;;;;;;;;;;;;;;;15.54;58.48;100692.03;5112083;28;19984;-22
2021/10/07 12:18:23;;;;;;;;;;;;;;;15.56;58.21;100689.09;5111933;28;20364;-22
2021/10/07 12:20:53;;;;;;;;;;;;;;;15.57;58.54;100686.19;5093748;28;20466;-22
2021/10/07 12:23:18;;;;;;;;;;;;;;;15.59;58.12;100689.47;5111913;28;19915;-22
2021/10/07 12:25:44;;;;;;;;;;;;;;;15.47;58.81;100689.47;5112272;28;20349;-22
2021/10/07 12:28:16;;;;;;;;;;;;;;;15.48;58.60;100687.59;5111632;28;19911;-21
2021/10/07 12:30:50;;;;;;;;;;;;;;;15.69;58.26;100688.84;5111515;28;19918;-21
2021/10/07 12:33:15;;;;;;;;;;;;;;;15.58;58.56;100681.63;5111852;28;19945;-22
2021/10/07 12:35:52;;;;;;;;;;;;;;;15.55;58.66;100687.47;5111998;28;19924;-21